createdAt,value
2018-04-19T00:00:40.316Z,19.00
2018-04-19T00:03:14.954Z,17.00
2018-04-19T00:05:48.882Z,20.43
2018-04-19T00:08:23.235Z,17.43
2018-04-19T00:10:58.609Z,18.70
2018-04-19T00:13:33.023Z,17.03
2018-04-19T00:16:07.790Z,18.37
2018-04-19T00:18:42.160Z,19.70
2018-04-19T00:21:16.698Z,16.43
2018-04-19T00:23:51.306Z,18.17
2018-04-19T00:26:26.180Z,21.77
2018-04-19T00:29:00.204Z,19.63
2018-04-19T00:31:34.869Z,19.03
2018-04-19T00:34:08.767Z,19.97
2018-04-19T00:36:43.558Z,20.97
2018-04-19T00:39:18.121Z,19.37
2018-04-19T00:41:51.945Z,19.30
2018-04-19T00:44:25.830Z,17.47
2018-04-19T00:47:01.091Z,17.33
2018-04-19T00:49:35.990Z,19.60
2018-04-19T00:52:10.288Z,19.53
2018-04-19T00:54:45.474Z,18.90
2018-04-19T00:57:19.223Z,18.90
2018-04-19T00:59:53.763Z,18.63
2018-04-19T01:02:28.095Z,18.97
2018-04-19T01:05:02.232Z,20.30
2018-04-19T01:07:37.491Z,18.57
2018-04-19T01:10:12.493Z,20.50
2018-04-19T01:12:46.335Z,20.03
2018-04-19T01:15:20.976Z,19.53
2018-04-19T01:17:54.835Z,19.67
2018-04-19T01:20:28.719Z,22.53
2018-04-19T01:23:02.712Z,22.23
2018-04-19T01:25:36.382Z,23.87
2018-04-19T01:28:10.151Z,19.50
2018-04-19T01:30:45.208Z,18.70
2018-04-19T01:33:18.872Z,22.40
2018-04-19T01:36:05.372Z,19.40
2018-04-19T01:38:39.429Z,21.13
2018-04-19T01:41:13.466Z,19.10
2018-04-19T01:43:47.189Z,22.87
2018-04-19T01:46:21.548Z,18.30
2018-04-19T01:48:55.707Z,25.43
2018-04-19T01:51:29.551Z,21.37
2018-04-19T01:54:05.256Z,22.30
2018-04-19T01:56:40.279Z,22.37
2018-04-19T01:59:15.388Z,19.67
2018-04-19T02:01:49.100Z,21.13
2018-04-19T02:04:24.350Z,20.13
2018-04-19T02:06:58.188Z,19.20
2018-04-19T02:09:33.143Z,21.57
2018-04-19T02:12:07.667Z,22.23
2018-04-19T02:14:41.798Z,21.03
2018-04-19T02:17:15.611Z,20.10
2018-04-19T02:19:49.479Z,21.33
2018-04-19T02:22:23.210Z,17.70
2018-04-19T02:24:57.803Z,18.87
2018-04-19T02:27:31.731Z,18.77
2018-04-19T02:30:05.860Z,20.83
2018-04-19T02:32:39.715Z,19.13
2018-04-19T02:35:14.418Z,19.13
2018-04-19T02:37:48.044Z,21.33
2018-04-19T02:40:22.297Z,19.13
2018-04-19T02:42:56.985Z,21.13
2018-04-19T02:45:31.534Z,17.13
2018-04-19T02:48:07.074Z,18.60
2018-04-19T02:50:41.042Z,19.23
2018-04-19T02:53:15.879Z,18.00
2018-04-19T02:55:50.412Z,22.13
2018-04-19T02:58:23.947Z,21.43
2018-04-19T03:00:57.710Z,22.90
2018-04-19T03:03:32.489Z,20.50
2018-04-19T03:06:07.112Z,25.00
2018-04-19T03:08:41.095Z,19.13
2018-04-19T03:11:15.902Z,20.07
2018-04-19T03:13:50.365Z,17.47
2018-04-19T03:16:25.118Z,18.80
2018-04-19T03:18:59.067Z,18.13
2018-04-19T03:21:34.000Z,18.63
2018-04-19T03:24:07.899Z,17.63
2018-04-19T03:26:43.232Z,17.37
2018-04-19T03:29:16.822Z,20.07
2018-04-19T03:31:51.355Z,20.20
2018-04-19T03:34:26.052Z,19.97
2018-04-19T03:36:59.883Z,19.40
2018-04-19T03:39:34.535Z,21.03
2018-04-19T03:42:10.006Z,18.63
2018-04-19T03:44:44.900Z,21.80
2018-04-19T03:47:18.891Z,20.63
2018-04-19T03:49:52.390Z,19.97
2018-04-19T03:52:27.469Z,19.77
2018-04-19T03:55:02.137Z,17.80
2018-04-19T03:57:36.232Z,26.37
2018-04-19T04:00:10.245Z,21.60
2018-04-19T04:02:44.180Z,20.43
2018-04-19T04:05:18.049Z,21.50
2018-04-19T04:07:52.685Z,20.67
2018-04-19T04:10:27.385Z,20.40
2018-04-19T04:13:01.847Z,20.97
2018-04-19T04:15:36.768Z,20.17
2018-04-19T04:18:22.615Z,20.00
2018-04-19T04:21:08.919Z,24.47
2018-04-19T04:23:51.687Z,19.93
2018-04-19T04:26:26.266Z,23.43
2018-04-19T04:29:00.220Z,22.47
2018-04-19T04:31:34.171Z,25.20
2018-04-19T04:34:09.125Z,19.70
2018-04-19T04:36:43.075Z,23.37
2018-04-19T04:39:16.650Z,21.37
2018-04-19T04:41:50.269Z,23.70
2018-04-19T04:44:24.680Z,25.43
2018-04-19T04:46:59.210Z,22.70
2018-04-19T04:49:33.104Z,23.60
2018-04-19T04:52:08.559Z,21.20
2018-04-19T04:54:43.600Z,22.47
2018-04-19T04:57:17.878Z,19.87
2018-04-19T04:59:52.725Z,21.10
2018-04-19T05:02:27.860Z,20.87
2018-04-19T05:05:03.116Z,18.97
2018-04-19T05:07:38.213Z,18.10
2018-04-19T05:10:11.863Z,16.37
2018-04-19T05:12:45.766Z,17.57
2018-04-19T05:15:19.355Z,19.23
2018-04-19T05:17:53.398Z,18.27
2018-04-19T05:20:29.858Z,19.60
2018-04-19T05:23:03.682Z,22.13
2018-04-19T05:25:38.815Z,22.57
2018-04-19T05:28:12.526Z,21.27
2018-04-19T05:30:47.391Z,20.50
2018-04-19T05:33:21.870Z,20.73
2018-04-19T05:35:56.005Z,19.67
2018-04-19T05:38:30.234Z,23.57
2018-04-19T05:41:04.852Z,17.60
2018-04-19T05:43:39.438Z,21.80
2018-04-19T05:46:13.414Z,20.77
2018-04-19T05:48:48.813Z,23.47
2018-04-19T05:51:23.684Z,22.13
2018-04-19T05:53:57.893Z,25.67
2018-04-19T05:56:31.638Z,21.73
2018-04-19T05:59:05.583Z,21.17
2018-04-19T06:01:40.157Z,19.43
2018-04-19T06:04:14.634Z,22.50
2018-04-19T06:06:48.970Z,20.97
2018-04-19T06:09:23.494Z,21.17
2018-04-19T06:11:58.121Z,28.80
2018-04-19T06:14:33.321Z,28.03
2018-04-19T06:17:07.027Z,31.73
2018-04-19T06:19:41.751Z,32.23
2018-04-19T06:22:15.555Z,27.80
2018-04-19T06:24:50.179Z,28.67
2018-04-19T06:27:25.017Z,25.87
2018-04-19T06:29:59.860Z,25.53
2018-04-19T06:32:35.852Z,25.80
2018-04-19T06:35:10.527Z,27.77
2018-04-19T06:37:44.218Z,20.17
2018-04-19T06:40:19.051Z,21.40
2018-04-19T06:42:52.635Z,20.03
2018-04-19T06:45:26.360Z,22.00
2018-04-19T06:48:01.807Z,22.93
2018-04-19T06:50:36.967Z,22.50
2018-04-19T06:53:11.762Z,17.73
2018-04-19T06:55:45.379Z,18.93
2018-04-19T06:58:19.263Z,19.00
2018-04-19T07:00:53.298Z,18.43
2018-04-19T07:03:28.031Z,15.83
2018-04-19T07:06:01.934Z,17.17
2018-04-19T07:08:36.698Z,16.03
2018-04-19T07:11:10.571Z,14.07
2018-04-19T07:13:44.823Z,14.27
2018-04-19T07:16:18.766Z,13.73
2018-04-19T07:18:53.617Z,12.97
2018-04-19T07:21:29.271Z,15.53
2018-04-19T07:24:04.108Z,12.43
2018-04-19T07:26:38.815Z,14.43
2018-04-19T07:29:13.191Z,13.57
2018-04-19T07:31:47.438Z,14.10
2018-04-19T07:34:22.133Z,14.43
2018-04-19T07:36:56.198Z,14.07
2018-04-19T07:39:30.193Z,11.37
2018-04-19T07:42:06.219Z,13.70
2018-04-19T07:44:39.953Z,12.17
2018-04-19T07:47:14.336Z,17.03
2018-04-19T07:49:48.775Z,12.47
2018-04-19T07:52:23.626Z,11.87
2018-04-19T07:54:57.926Z,11.33
2018-04-19T07:57:31.966Z,10.67
2018-04-19T08:00:06.131Z,9.33
2018-04-19T08:02:40.759Z,7.30
2018-04-19T08:05:15.447Z,9.13
2018-04-19T08:07:49.452Z,10.30
2018-04-19T08:10:23.328Z,8.23
2018-04-19T08:12:57.005Z,7.03
2018-04-19T08:15:31.016Z,6.80
2018-04-19T08:18:05.021Z,7.00
2018-04-19T08:20:39.880Z,6.80
2018-04-19T08:23:14.146Z,8.20
2018-04-19T08:25:47.690Z,6.67
2018-04-19T08:28:21.479Z,8.30
2018-04-19T08:30:55.300Z,6.80
2018-04-19T08:33:28.977Z,6.47
2018-04-19T08:36:02.795Z,8.07
2018-04-19T08:38:38.665Z,6.60
2018-04-19T08:41:12.422Z,6.63
2018-04-19T08:43:46.363Z,6.80
2018-04-19T08:46:20.110Z,7.90
2018-04-19T08:48:54.390Z,6.53
2018-04-19T08:51:28.956Z,5.97
2018-04-19T08:54:04.140Z,6.43
2018-04-19T08:56:39.071Z,6.40
2018-04-19T08:59:13.431Z,6.50
2018-04-19T09:01:48.319Z,6.73
2018-04-19T09:04:22.844Z,6.13
2018-04-19T09:06:57.015Z,8.57
2018-04-19T09:09:31.423Z,6.07
2018-04-19T09:12:06.417Z,5.90
2018-04-19T09:14:40.506Z,8.87
2018-04-19T09:17:15.565Z,6.07
2018-04-19T09:19:49.168Z,5.63
2018-04-19T09:22:22.920Z,6.10
2018-04-19T09:24:57.074Z,6.37
2018-04-19T09:27:31.434Z,7.00
2018-04-19T09:30:05.909Z,9.37
2018-04-19T09:32:39.509Z,7.00
2018-04-19T09:35:14.553Z,6.33
2018-04-19T09:37:48.320Z,6.43
2018-04-19T09:40:21.935Z,6.70
2018-04-19T09:42:56.145Z,7.17
2018-04-19T09:45:30.689Z,7.13
2018-04-19T09:48:04.830Z,8.10
2018-04-19T09:50:39.290Z,8.87
2018-04-19T09:53:14.313Z,8.27
2018-04-19T09:55:48.133Z,8.37
2018-04-19T09:58:22.683Z,8.90
2018-04-19T10:01:04.159Z,6.83
2018-04-19T10:03:44.597Z,8.40
2018-04-19T10:06:18.667Z,7.80
2018-04-19T10:08:52.743Z,8.90
2018-04-19T10:11:26.746Z,7.50
2018-04-19T10:14:01.256Z,7.87
2018-04-19T10:16:36.240Z,7.37
2018-04-19T10:19:09.886Z,7.83
2018-04-19T10:21:44.630Z,7.50
2018-04-19T10:24:19.775Z,7.20
2018-04-19T10:26:54.287Z,8.70
2018-04-19T10:29:28.927Z,8.47
2018-04-19T10:32:02.395Z,8.83
2018-04-19T10:34:36.408Z,10.17
2018-04-19T10:37:11.083Z,10.60
2018-04-19T10:39:44.574Z,8.53
2018-04-19T10:42:18.419Z,9.03
2018-04-19T10:44:52.151Z,11.77
2018-04-19T10:47:26.298Z,10.07
2018-04-19T10:50:00.762Z,11.53
2018-04-19T10:52:35.413Z,12.30
2018-04-19T10:55:09.038Z,11.07
2018-04-19T10:57:43.218Z,10.87
2018-04-19T11:00:18.113Z,11.30
2018-04-19T11:02:52.221Z,9.80
2018-04-19T11:05:26.158Z,9.90
2018-04-19T11:08:01.183Z,10.03
2018-04-19T11:10:34.933Z,9.53
2018-04-19T11:13:09.412Z,10.20
2018-04-19T11:15:44.453Z,10.90
2018-04-19T11:18:19.080Z,9.97
2018-04-19T11:20:53.199Z,11.40
2018-04-19T11:23:26.932Z,9.63
2018-04-19T11:26:00.732Z,9.63
2018-04-19T11:28:36.204Z,11.27
2018-04-19T11:31:10.851Z,9.83
2018-04-19T11:33:46.382Z,9.13
2018-04-19T11:36:20.419Z,10.73
2018-04-19T11:38:55.143Z,10.30
2018-04-19T11:41:29.281Z,11.53
2018-04-19T11:44:05.407Z,9.57
2018-04-19T11:46:40.543Z,9.13
2018-04-19T11:49:15.403Z,10.60
2018-04-19T11:51:50.286Z,10.43
2018-04-19T11:54:24.064Z,11.87
2018-04-19T11:56:58.215Z,12.37
2018-04-19T11:59:31.894Z,11.17
2018-04-19T12:02:06.532Z,11.30
2018-04-19T12:04:41.397Z,11.83
2018-04-19T12:07:16.003Z,10.47
2018-04-19T12:09:50.898Z,10.57
2018-04-19T12:12:26.106Z,12.27
2018-04-19T12:14:59.747Z,11.60
2018-04-19T12:17:33.563Z,10.73
2018-04-19T12:20:08.954Z,11.50
2018-04-19T12:22:43.282Z,12.90
2018-04-19T12:25:17.991Z,11.30
2018-04-19T12:27:52.405Z,13.13
2018-04-19T12:30:28.091Z,12.60
2018-04-19T12:33:03.052Z,12.50
2018-04-19T12:35:37.230Z,13.13
2018-04-19T12:38:11.046Z,14.17
2018-04-19T12:40:45.873Z,15.17
2018-04-19T12:43:19.591Z,15.57
2018-04-19T12:45:53.686Z,14.37
2018-04-19T12:48:27.696Z,13.77
2018-04-19T12:51:02.286Z,13.70
2018-04-19T12:53:37.239Z,12.53
2018-04-19T12:56:11.821Z,12.63
2018-04-19T12:58:46.676Z,13.20
2018-04-19T13:01:20.711Z,11.93
2018-04-19T13:03:55.058Z,13.67
2018-04-19T13:06:28.847Z,11.80
2018-04-19T13:09:03.747Z,14.13
2018-04-19T13:11:37.464Z,12.30
2018-04-19T13:14:11.163Z,12.27
2018-04-19T13:16:45.831Z,12.33
2018-04-19T13:19:19.403Z,13.00
2018-04-19T13:21:53.323Z,12.43
2018-04-19T13:24:28.119Z,15.30
2018-04-19T13:27:03.085Z,16.33
2018-04-19T13:29:37.823Z,13.20
2018-04-19T13:32:11.590Z,15.53
2018-04-19T13:34:46.361Z,13.93
2018-04-19T13:37:21.632Z,13.20
2018-04-19T13:39:56.903Z,13.27
2018-04-19T13:42:30.692Z,12.70
2018-04-19T13:45:04.556Z,15.03
2018-04-19T13:47:38.598Z,12.00
2018-04-19T13:50:13.139Z,12.57
2018-04-19T13:52:47.746Z,12.57
2018-04-19T13:55:21.341Z,13.63
2018-04-19T13:57:55.332Z,13.80
2018-04-19T14:00:29.999Z,14.97
2018-04-19T14:03:03.861Z,16.23
2018-04-19T14:05:37.891Z,15.60
2018-04-19T14:08:12.551Z,15.77
2018-04-19T14:10:47.440Z,14.03
2018-04-19T14:13:21.897Z,14.70
2018-04-19T14:15:56.286Z,14.87
2018-04-19T14:18:31.157Z,14.33
2018-04-19T14:21:05.762Z,13.07
2018-04-19T14:23:39.449Z,13.97
2018-04-19T14:26:14.184Z,15.20
2018-04-19T14:28:47.971Z,13.27
2018-04-19T14:31:21.662Z,13.13
2018-04-19T14:33:56.492Z,14.03
2018-04-19T14:36:30.090Z,12.63
2018-04-19T14:39:06.622Z,15.00
2018-04-19T14:41:41.173Z,13.50
2018-04-19T14:44:15.103Z,12.80
2018-04-19T14:46:49.543Z,17.30
2018-04-19T14:49:24.840Z,11.33
2018-04-19T14:51:58.771Z,11.87
2018-04-19T14:54:33.296Z,10.03
2018-04-19T14:57:08.843Z,11.77
2018-04-19T14:59:43.413Z,11.77
2018-04-19T15:02:17.762Z,9.80
2018-04-19T15:04:51.823Z,12.63
2018-04-19T15:07:25.691Z,10.87
2018-04-19T15:09:59.597Z,9.60
2018-04-19T15:12:34.184Z,10.13
2018-04-19T15:15:08.939Z,8.50
2018-04-19T15:17:43.245Z,9.27
2018-04-19T15:20:18.201Z,12.93
2018-04-19T15:22:52.936Z,8.93
2018-04-19T15:25:27.040Z,10.30
2018-04-19T15:28:01.926Z,9.20
2018-04-19T15:30:35.776Z,8.77
2018-04-19T15:33:10.387Z,10.40
2018-04-19T15:35:45.168Z,12.90
2018-04-19T15:38:19.809Z,8.87
2018-04-19T15:40:54.531Z,7.80
2018-04-19T15:43:28.556Z,12.37
2018-04-19T15:46:02.983Z,6.30
2018-04-19T15:48:37.552Z,6.43
2018-04-19T15:51:11.532Z,9.93
2018-04-19T15:53:45.220Z,7.73
2018-04-19T15:56:18.848Z,8.93
2018-04-19T15:58:53.919Z,7.97
2018-04-19T16:01:27.803Z,7.60
2018-04-19T16:04:01.564Z,7.77
2018-04-19T16:06:35.392Z,10.47
2018-04-19T16:09:09.990Z,8.37
2018-04-19T16:11:52.851Z,6.33
2018-04-19T16:14:18.022Z,7.40
2018-04-19T16:16:52.043Z,10.77
2018-04-19T16:19:25.555Z,9.60
2018-04-19T16:21:59.137Z,7.77
2018-04-19T16:24:33.038Z,7.20
2018-04-19T16:27:07.984Z,9.07
2018-04-19T16:29:41.677Z,8.70
2018-04-19T16:32:16.206Z,7.63
2018-04-19T16:34:49.883Z,8.63
2018-04-19T16:37:24.682Z,9.10
2018-04-19T16:39:59.067Z,10.93
2018-04-19T16:42:33.359Z,10.20
2018-04-19T16:45:07.247Z,8.73
2018-04-19T16:47:41.763Z,8.17
2018-04-19T16:50:15.284Z,11.73
2018-04-19T16:52:48.776Z,8.17
2018-04-19T16:55:22.270Z,5.87
2018-04-19T16:57:57.020Z,10.37
2018-04-19T17:00:30.553Z,8.67
2018-04-19T17:03:04.184Z,11.13
2018-04-19T17:05:37.969Z,5.97
2018-04-19T17:08:12.437Z,7.90
2018-04-19T17:10:46.200Z,7.43
2018-04-19T17:13:20.842Z,14.53
2018-04-19T17:15:54.940Z,9.47
2018-04-19T17:18:29.789Z,8.37
2018-04-19T17:21:03.612Z,9.00
2018-04-19T17:23:37.339Z,16.13
2018-04-19T17:26:11.252Z,10.63
2018-04-19T17:28:46.473Z,10.73
2018-04-19T17:31:20.419Z,8.07
2018-04-19T17:33:54.100Z,7.50
2018-04-19T17:36:28.041Z,13.23
2018-04-19T17:39:01.932Z,9.27
2018-04-19T17:41:35.763Z,8.80
2018-04-19T17:44:10.873Z,8.00
2018-04-19T17:46:44.932Z,9.90
2018-04-19T17:49:18.809Z,8.30
2018-04-19T17:51:52.454Z,10.10
2018-04-19T17:54:27.354Z,7.53
2018-04-19T17:57:00.919Z,10.40
2018-04-19T17:59:35.089Z,8.60
2018-04-19T18:02:08.577Z,9.13
2018-04-19T18:04:42.234Z,10.17
2018-04-19T18:07:15.930Z,9.40
2018-04-19T18:09:50.464Z,7.63
2018-04-19T18:12:24.742Z,8.63
2018-04-19T18:14:59.263Z,10.20
2018-04-19T18:17:33.090Z,12.57
2018-04-19T18:20:06.710Z,11.90
2018-04-19T18:22:41.377Z,10.17
2018-04-19T18:25:15.725Z,9.43
2018-04-19T18:27:50.216Z,9.90
2018-04-19T18:30:24.087Z,11.23
2018-04-19T18:32:59.053Z,9.70
2018-04-19T18:35:32.854Z,9.43
2018-04-19T18:38:07.272Z,7.40
2018-04-19T18:40:41.013Z,8.73
2018-04-19T18:43:14.910Z,6.97
2018-04-19T18:45:49.271Z,7.97
2018-04-19T18:48:23.290Z,9.00
2018-04-19T18:50:58.797Z,10.33
2018-04-19T18:53:32.643Z,6.90
2018-04-19T18:56:06.384Z,9.90
2018-04-19T18:58:40.033Z,8.80
2018-04-19T19:01:14.310Z,8.13
2018-04-19T19:03:47.820Z,8.27
2018-04-19T19:06:21.353Z,8.07
2018-04-19T19:08:56.012Z,7.53
2018-04-19T19:11:29.973Z,7.80
2018-04-19T19:14:04.739Z,8.00
2018-04-19T19:16:39.467Z,8.10
2018-04-19T19:19:25.927Z,7.90
2018-04-19T19:22:00.291Z,12.23
2018-04-19T19:24:33.804Z,9.63
2018-04-19T19:27:07.407Z,9.40
2018-04-19T19:29:40.983Z,12.27
2018-04-19T19:32:15.366Z,13.07
2018-04-19T19:34:49.066Z,11.10
2018-04-19T19:37:22.987Z,10.20
2018-04-19T19:39:56.851Z,11.37
2018-04-19T19:42:31.376Z,8.87
2018-04-19T19:45:05.827Z,9.33
2018-04-19T19:47:40.350Z,9.83
2018-04-19T19:50:15.018Z,7.43
2018-04-19T19:52:49.052Z,11.30
2018-04-19T19:55:23.480Z,10.13
2018-04-19T19:57:58.060Z,12.10
2018-04-19T20:00:32.922Z,7.70
2018-04-19T20:03:07.308Z,9.13
2018-04-19T20:05:41.093Z,7.13
2018-04-19T20:08:15.508Z,7.13
2018-04-19T20:10:49.071Z,9.87
2018-04-19T20:13:23.518Z,7.20
2018-04-19T20:15:58.231Z,11.13
2018-04-19T20:18:32.759Z,8.10
2018-04-19T20:21:07.150Z,10.83
2018-04-19T20:23:40.999Z,9.97
2018-04-19T20:26:15.712Z,8.33
2018-04-19T20:28:50.357Z,10.23
2018-04-19T20:31:24.023Z,9.90
2018-04-19T20:33:58.787Z,8.00
2018-04-19T20:36:33.537Z,8.43
2018-04-19T20:39:08.125Z,8.30
2018-04-19T20:41:42.844Z,11.53
2018-04-19T20:44:17.592Z,11.27
2018-04-19T20:46:51.472Z,9.17
2018-04-19T20:49:26.123Z,8.20
2018-04-19T20:52:00.951Z,10.77
2018-04-19T20:54:35.653Z,9.67
2018-04-19T20:57:09.857Z,8.70
2018-04-19T20:59:43.595Z,8.63
2018-04-19T21:02:18.449Z,8.10
2018-04-19T21:04:52.308Z,7.90
2018-04-19T21:07:26.159Z,9.33
2018-04-19T21:10:00.737Z,11.47
2018-04-19T21:12:34.531Z,9.40
2018-04-19T21:15:09.359Z,9.20
2018-04-19T21:17:44.068Z,7.13
2018-04-19T21:20:19.012Z,8.77
2018-04-19T21:22:53.498Z,9.30
2018-04-19T21:25:28.863Z,9.63
2018-04-19T21:28:03.589Z,12.77
2018-04-19T21:30:37.410Z,9.00
2018-04-19T21:33:11.401Z,9.13
2018-04-19T21:35:46.002Z,8.97
2018-04-19T21:38:20.644Z,8.60
2018-04-19T21:40:55.493Z,8.03
2018-04-19T21:43:31.157Z,7.30
2018-04-19T21:46:04.830Z,9.13
2018-04-19T21:48:39.834Z,9.27
2018-04-19T21:51:14.997Z,10.53
2018-04-19T21:53:49.167Z,7.13
2018-04-19T21:56:23.896Z,8.60
2018-04-19T21:58:59.537Z,8.67
2018-04-19T22:01:34.490Z,8.87
2018-04-19T22:04:08.929Z,9.23
2018-04-19T22:06:43.275Z,8.73
2018-04-19T22:09:17.165Z,11.50
2018-04-19T22:11:51.983Z,9.63
2018-04-19T22:14:25.791Z,9.70
2018-04-19T22:17:00.627Z,8.00
2018-04-19T22:19:35.162Z,8.63
2018-04-19T22:22:09.220Z,10.67
2018-04-19T22:24:43.791Z,12.33
2018-04-19T22:27:17.634Z,8.87
2018-04-19T22:29:52.416Z,12.43
2018-04-19T22:32:27.833Z,8.83
2018-04-19T22:35:02.576Z,9.90
2018-04-19T22:37:37.296Z,13.33
2018-04-19T22:40:11.738Z,11.60
2018-04-19T22:42:46.986Z,9.00
2018-04-19T22:45:21.146Z,13.23
2018-04-19T22:47:55.183Z,11.27
2018-04-19T22:50:28.913Z,8.97
2018-04-19T22:53:02.619Z,8.50
2018-04-19T22:55:37.651Z,8.70
2018-04-19T22:58:12.256Z,11.30
2018-04-19T23:00:47.088Z,13.63
2018-04-19T23:03:21.180Z,10.93
2018-04-19T23:05:54.904Z,10.37
2018-04-19T23:08:29.838Z,9.77
2018-04-19T23:11:03.612Z,12.20
2018-04-19T23:13:38.299Z,10.17
2018-04-19T23:16:12.949Z,10.57
2018-04-19T23:18:47.211Z,10.37
2018-04-19T23:21:21.711Z,11.63
2018-04-19T23:23:55.312Z,13.30
2018-04-19T23:26:30.752Z,9.37
2018-04-19T23:29:05.551Z,10.63
2018-04-19T23:31:40.408Z,12.50
2018-04-19T23:34:14.928Z,9.60
2018-04-19T23:36:49.841Z,11.97
2018-04-19T23:39:24.290Z,11.07
2018-04-19T23:41:59.471Z,10.13
2018-04-19T23:44:34.141Z,13.23
2018-04-19T23:47:08.654Z,12.40
2018-04-19T23:49:42.699Z,10.07
